Time;durP1;ratioP1;P1;durP2;ratioP2;P2;SDS_P1;SDS_P2;PMS_P1;PMS_P2;Temp;Humidity;BMP_temperature;BMP_pressure;BME280_temperature;BME280_humidity;BME280_pressure;Samples;Min_cycle;Max_cycle;Signal;HPM_P1;HPM_P2
2022/11/07 00:01:13;;;;;;;42.30;23.65;;;;;;;12.90;100.00;97160.63;5025162;28;20132;-62
2022/11/07 00:03:39;;;;;;;42.20;24.90;;;;;;;13.25;100.00;97206.25;5025049;28;20054;-54
2022/11/07 00:06:06;;;;;;;45.15;25.08;;;;;;;13.39;100.00;97231.41;5024701;28;20140;-57
2022/11/07 00:08:33;;;;;;;46.22;25.20;;;;;;;13.42;100.00;97227.88;5023358;28;20132;-63
2022/11/07 00:11:01;;;;;;;46.13;25.15;;;;;;;13.49;100.00;97225.16;5023274;28;20103;-55
2022/11/07 00:13:28;;;;;;;46.92;26.98;;;;;;;13.56;100.00;97233.56;5024750;28;20085;-63
2022/11/07 00:15:59;;;;;;;49.10;25.95;;;;;;;13.59;100.00;97227.22;5024563;28;20130;-62
2022/11/07 00:18:26;;;;;;;51.90;25.63;;;;;;;13.07;100.00;97121.84;5024600;28;20857;-54
2022/11/07 00:20:52;;;;;;;43.58;24.67;;;;;;;13.67;99.90;97228.88;5024446;28;20114;-55
2022/11/07 00:23:19;;;;;;;43.88;23.38;;;;;;;13.39;99.69;97177.75;5024388;28;20152;-55
2022/11/07 00:25:45;;;;;;;40.97;23.17;;;;;;;13.65;98.64;97234.03;5023135;28;20139;-62
2022/11/07 00:28:12;;;;;;;38.10;22.58;;;;;;;13.61;98.72;97230.41;5024281;28;20049;-55
2022/11/07 00:30:39;;;;;;;40.20;20.70;;;;;;;13.67;98.38;97223.31;5023145;28;20080;-58
2022/11/07 00:33:05;;;;;;;40.67;20.17;;;;;;;13.67;97.54;97228.09;5024329;28;20598;-63
2022/11/07 00:35:32;;;;;;;42.72;19.52;;;;;;;13.48;97.71;97206.84;5024597;28;20073;-63
2022/11/07 00:37:59;;;;;;;37.00;20.08;;;;;;;13.14;97.96;97177.53;5024131;28;20508;-54
2022/11/07 00:40:25;;;;;;;39.38;18.60;;;;;;;13.08;98.51;97179.09;5022901;28;20134;-62
2022/11/07 00:42:52;;;;;;;34.30;19.25;;;;;;;13.48;97.81;97226.31;5022889;28;20126;-54
2022/11/07 00:45:19;;;;;;;38.83;20.55;;;;;;;13.14;97.73;97171.97;5024438;28;20088;-55
2022/11/07 00:47:46;;;;;;;40.92;21.20;;;;;;;13.43;98.03;97223.94;5024107;28;20136;-57
2022/11/07 00:50:12;;;;;;;35.05;19.90;;;;;;;13.49;97.45;97221.56;5024466;28;20049;-55
2022/11/07 00:52:39;;;;;;;37.00;20.17;;;;;;;13.52;96.54;97227.16;5024740;28;20084;-62
2022/11/07 00:55:06;;;;;;;33.58;20.42;;;;;;;13.39;96.95;97223.06;5024033;28;20076;-54
2022/11/07 00:57:33;;;;;;;35.22;19.55;;;;;;;13.33;96.76;97218.25;5023257;28;20138;-55
2022/11/07 00:59:59;;;;;;;40.55;20.80;;;;;;;13.19;98.50;97216.16;5024992;28;20152;-54
2022/11/07 01:02:26;;;;;;;39.53;21.63;;;;;;;13.17;98.88;97212.94;5024379;28;20526;-57
2022/11/07 01:05:11;;;;;;;44.13;23.15;;;;;;;12.76;99.56;97161.25;5024247;28;20445;-62
2022/11/07 01:07:38;;;;;;;37.50;20.88;;;;;;;13.20;99.17;97209.38;5023722;28;20131;-54
2022/11/07 01:10:06;;;;;;;35.92;21.77;;;;;;;13.31;98.29;97203.91;5023875;28;20132;-54
2022/11/07 01:12:34;;;;;;;43.17;21.00;;;;;;;12.94;98.93;97155.88;5022224;28;20156;-57
2022/11/07 01:15:02;;;;;;;39.42;21.65;;;;;;;13.24;98.90;97196.31;5022427;28;20533;-62
2022/11/07 01:17:28;;;;;;;35.38;19.77;;;;;;;13.11;98.94;97183.06;5024411;28;20507;-57
2022/11/07 01:19:55;;;;;;;40.97;20.98;;;;;;;13.23;98.68;97208.63;5024271;28;20049;-55
2022/11/07 01:22:21;;;;;;;39.67;20.88;;;;;;;13.20;98.55;97206.59;5024188;28;20701;-55
2022/11/07 01:24:48;;;;;;;38.35;21.05;;;;;;;12.91;98.53;97176.91;5022866;28;20527;-62
2022/11/07 01:27:14;;;;;;;39.05;18.85;;;;;;;12.97;98.50;97205.16;5024153;28;20049;-62
2022/11/07 01:29:41;;;;;;;39.10;21.08;;;;;;;13.10;98.85;97276.81;5023135;28;20563;-55
2022/11/07 01:32:08;;;;;;;38.65;20.23;;;;;;;13.08;98.11;97200.53;5024094;28;20137;-56
2022/11/07 01:34:34;;;;;;;42.33;21.10;;;;;;;13.07;97.96;97213.63;5023896;28;20119;-62
2022/11/07 01:37:01;;;;;;;38.33;20.63;;;;;;;12.90;99.86;97211.44;5025242;28;20092;-62
2022/11/07 01:39:27;;;;;;;41.30;22.00;;;;;;;12.47;100.00;97175.22;5027373;28;20546;-62
2022/11/07 01:41:54;;;;;;;52.08;24.23;;;;;;;12.68;100.00;97204.03;5025967;28;20077;-61
2022/11/07 01:44:20;;;;;;;42.88;22.52;;;;;;;12.89;100.00;97215.41;5027453;28;20053;-61
2022/11/07 01:46:47;;;;;;;45.63;22.35;;;;;;;12.79;100.00;97216.09;5027369;28;20088;-62
2022/11/07 01:49:22;;;;;;;39.83;21.80;;;;;;;12.93;100.00;97209.88;5025968;28;20600;-55
2022/11/07 01:51:55;;;;;;;39.97;21.85;;;;;;;12.79;98.81;97160.47;5027287;28;20088;-62
2022/11/07 01:54:29;;;;;;;47.22;22.48;;;;;;;12.98;98.87;97206.75;5025514;28;20128;-54
2022/11/07 01:56:59;;;;;;;39.78;20.88;;;;;;;12.96;98.45;97187.66;5027296;28;20053;-62
2022/11/07 01:59:29;;;;;;;38.95;20.92;;;;;;;13.11;97.82;97211.69;5027340;28;20049;-62
2022/11/07 02:01:57;;;;;;;40.03;21.70;;;;;;;13.09;97.96;97214.03;5027271;28;20111;-61
2022/11/07 02:04:28;;;;;;;38.80;21.65;;;;;;;12.94;98.28;97189.25;5026964;28;20073;-63
2022/11/07 02:07:02;;;;;;;38.67;21.75;;;;;;;12.81;98.76;97172.03;5026750;28;20095;-62
2022/11/07 02:09:29;;;;;;;35.20;21.52;;;;;;;12.88;100.00;97216.56;5025470;28;20173;-55
2022/11/07 02:11:59;;;;;;;48.30;21.40;;;;;;;12.72;99.73;97171.53;5027025;28;20057;-62
2022/11/07 02:14:28;;;;;;;42.25;22.73;;;;;;;12.94;99.35;97212.28;5026575;28;20050;-57
2022/11/07 02:16:55;;;;;;;41.72;22.60;;;;;;;12.78;100.00;97208.13;5025434;28;20111;-62
2022/11/07 02:19:38;;;;;;;43.35;22.00;;;;;;;12.79;99.51;97210.53;5025430;28;20085;-54
2022/11/07 02:22:12;;;;;;;41.90;22.52;;;;;;;12.10;100.00;97219.59;5025415;28;20081;-62
2022/11/07 02:24:39;;;;;;;38.92;21.92;;;;;;;11.80;100.00;97191.00;5026376;28;20089;-55
2022/11/07 02:27:11;;;;;;;42.53;23.98;;;;;;;11.65;100.00;97205.84;5026576;28;20134;-62
2022/11/07 02:29:41;;;;;;;45.55;23.73;;;;;;;11.85;100.00;97226.75;5025354;28;20150;-55
2022/11/07 02:32:10;;;;;;;41.75;22.15;;;;;;;11.92;100.00;97227.66;5026565;28;20149;-56
2022/11/07 02:34:37;;;;;;;42.33;24.52;;;;;;;11.47;100.00;97169.47;5026593;28;20188;-62
2022/11/07 02:37:11;;;;;;;46.50;24.92;;;;;;;11.74;100.00;97209.16;5026572;28;20564;-55
2022/11/07 02:39:38;;;;;;;45.10;24.70;;;;;;;11.85;100.00;97226.75;5026590;28;20051;-55
2022/11/07 02:42:05;;;;;;;56.35;26.40;;;;;;;11.97;100.00;97230.13;5026145;28;20085;-63
2022/11/07 02:44:32;;;;;;;45.72;26.10;;;;;;;11.91;100.00;97214.16;5026232;28;20511;-63
2022/11/07 02:47:00;;;;;;;51.97;26.65;;;;;;;12.07;100.00;97223.13;5026346;28;20096;-54
2022/11/07 02:49:26;;;;;;;47.53;25.48;;;;;;;12.05;100.00;97231.81;5025365;28;20153;-61
2022/11/07 02:51:53;;;;;;;43.72;24.73;;;;;;;11.90;100.00;97213.34;5025805;28;20324;-57
2022/11/07 02:54:19;;;;;;;49.20;26.30;;;;;;;11.98;100.00;97225.38;5025799;28;20232;-55
2022/11/07 02:56:46;;;;;;;49.30;26.02;;;;;;;11.92;100.00;97227.66;5025917;28;20182;-54
2022/11/07 02:59:12;;;;;;;55.25;26.73;;;;;;;11.78;100.00;97215.53;5025717;28;20132;-56
2022/11/07 03:01:39;;;;;;;48.47;26.48;;;;;;;11.89;100.00;97235.94;5025831;28;20136;-62
2022/11/07 03:04:06;;;;;;;47.72;26.40;;;;;;;11.80;100.00;97235.41;5025338;28;20512;-62
2022/11/07 03:06:32;;;;;;;50.75;26.42;;;;;;;11.74;100.00;97236.91;5025628;28;20050;-55
2022/11/07 03:08:59;;;;;;;47.63;25.65;;;;;;;11.31;100.00;97174.38;5025411;28;20132;-56
2022/11/07 03:11:25;;;;;;;51.15;27.83;;;;;;;11.74;100.00;97242.44;5025861;28;20129;-62
2022/11/07 03:13:53;;;;;;;47.05;25.48;;;;;;;11.15;100.00;97195.06;5025840;28;20088;-62
2022/11/07 03:16:20;;;;;;;47.17;25.50;;;;;;;11.58;100.00;97250.09;5024604;28;20053;-55
2022/11/07 03:18:47;;;;;;;49.17;24.35;;;;;;;11.09;100.00;97183.50;5025804;28;20083;-56
2022/11/07 03:21:13;;;;;;;45.80;22.65;;;;;;;11.15;100.00;97195.06;5025576;28;20141;-56
2022/11/07 03:23:40;;;;;;;44.28;22.85;;;;;;;11.41;100.00;97323.50;5025697;28;20953;-61
2022/11/07 03:26:07;;;;;;;42.33;22.92;;;;;;;11.40;100.00;97255.34;5025671;28;20140;-55
2022/11/07 03:28:33;;;;;;;43.67;22.98;;;;;;;11.46;100.00;97258.63;5024389;28;20136;-62
2022/11/07 03:31:02;;;;;;;47.60;24.38;;;;;;;11.44;100.00;97244.31;5025421;28;20072;-62
2022/11/07 03:33:29;;;;;;;51.70;24.02;;;;;;;11.25;100.00;97230.50;5024873;28;20054;-55
2022/11/07 03:35:56;;;;;;;36.17;21.90;;;;;;;10.99;100.00;97172.22;5025247;28;20146;-55
2022/11/07 03:38:22;;;;;;;44.97;24.00;;;;;;;11.45;100.00;97254.22;5025005;28;20132;-62
2022/11/07 03:40:49;;;;;;;45.38;25.55;;;;;;;11.09;100.00;97235.38;5025060;28;20144;-56
2022/11/07 03:43:16;;;;;;;53.67;27.35;;;;;;;11.29;100.00;97248.00;5024729;28;20495;-62
2022/11/07 03:45:43;;;;;;;51.55;25.83;;;;;;;11.30;100.00;97252.38;5024878;28;20080;-56
2022/11/07 03:48:09;;;;;;;50.17;26.10;;;;;;;10.73;100.00;97186.00;5024829;28;20086;-55
2022/11/07 03:50:36;;;;;;;51.25;25.15;;;;;;;10.73;100.00;97253.31;5024859;28;20056;-55
2022/11/07 03:53:02;;;;;;;58.03;25.65;;;;;;;10.18;100.00;97193.63;5024402;28;20088;-62
2022/11/07 03:55:29;;;;;;;47.03;24.55;;;;;;;10.49;100.00;97251.66;5025155;28;20049;-54
2022/11/07 03:57:55;;;;;;;40.72;23.75;;;;;;;10.73;100.00;97255.28;5024737;28;20141;-62
2022/11/07 04:00:22;;;;;;;40.72;23.42;;;;;;;10.64;100.00;97256.28;5024371;28;20128;-62
2022/11/07 04:02:49;;;;;;;46.70;23.65;;;;;;;10.75;100.00;97256.50;5024702;28;20136;-62
2022/11/07 04:05:16;;;;;;;48.17;24.45;;;;;;;10.83;100.00;97258.25;5024720;28;20111;-54
2022/11/07 04:07:42;;;;;;;47.72;22.67;;;;;;;10.77;100.00;97242.28;5024414;28;20141;-63
2022/11/07 04:10:09;;;;;;;46.60;22.75;;;;;;;10.90;100.00;97257.56;5024746;28;20132;-62
2022/11/07 04:18:06;;;;;;;41.97;23.38;;;;;;;10.78;100.00;97255.75;5024831;28;20140;-55
2022/11/07 04:20:33;;;;;;;41.53;22.73;;;;;;;10.90;100.00;97254.81;5024854;28;20619;-55
2022/11/07 04:22:59;;;;;;;43.40;23.13;;;;;;;10.58;100.00;97196.81;5024481;28;20133;-62
2022/11/07 04:28:11;;;;;;;44.63;24.98;;;;;;;10.90;100.00;97252.03;5024660;28;20083;-54
2022/11/07 04:30:38;;;;;;;44.40;23.35;;;;;;;10.84;100.00;97242.44;5024366;28;20656;-62
2022/11/07 04:33:04;;;;;;;53.85;28.35;;;;;;;11.01;100.00;97259.41;5022526;28;20132;-55
2022/11/07 04:35:32;;;;;;;66.88;31.65;;;;;;;10.34;100.00;97185.25;5023258;28;20054;-62
2022/11/07 04:37:59;;;;;;;55.83;26.83;;;;;;;10.76;98.66;97262.84;5024383;28;20136;-62
2022/11/07 04:40:27;;;;;;;51.40;24.00;;;;;;;9.77;100.00;97255.16;5024530;28;20818;-62
2022/11/07 04:42:54;;;;;;;49.03;25.13;;;;;;;9.09;100.00;97265.69;5023219;28;20054;-55
2022/11/07 04:45:21;;;;;;;56.72;26.60;;;;;;;9.18;100.00;97271.06;5023551;28;20111;-62
2022/11/07 04:47:48;;;;;;;56.67;27.50;;;;;;;7.82;100.00;97108.78;5022337;28;20603;-57
2022/11/07 04:50:17;;;;;;;55.47;27.38;;;;;;;8.41;100.00;97242.13;5023719;28;20050;-55
2022/11/07 04:52:45;;;;;;;42.10;23.00;;;;;;;8.51;100.00;97280.28;5024113;28;20793;-55
2022/11/07 04:55:21;;;;;;;41.60;25.88;;;;;;;8.75;100.00;97268.31;5024095;28;20152;-61
2022/11/07 04:57:48;;;;;;;50.85;27.00;;;;;;;8.46;100.00;97189.44;5024008;28;20062;-62
2022/11/07 05:00:16;;;;;;;46.30;26.98;;;;;;;9.03;100.00;97263.56;5022861;28;20144;-62
2022/11/07 05:02:43;;;;;;;59.75;30.30;;;;;;;9.28;100.00;97280.78;5024350;28;20529;-62
2022/11/07 05:05:10;;;;;;;61.22;30.52;;;;;;;9.13;100.00;97229.88;5024090;28;20405;-61
2022/11/07 05:07:38;;;;;;;64.63;30.52;;;;;;;9.59;100.00;97281.59;5024406;28;20132;-55
2022/11/07 05:10:06;;;;;;;50.28;28.67;;;;;;;9.84;100.00;97294.06;5024413;28;20124;-62
2022/11/07 05:12:37;;;;;;;47.47;25.67;;;;;;;9.52;100.00;97292.47;5026128;28;20147;-54
2022/11/07 05:15:04;;;;;;;59.33;28.38;;;;;;;9.29;100.00;97282.38;5027724;28;20088;-62
2022/11/07 05:17:31;;;;;;;48.15;25.17;;;;;;;9.24;100.00;97302.81;5026364;28;20509;-55
2022/11/07 05:19:58;;;;;;;53.20;25.80;;;;;;;9.11;100.00;97298.50;5027958;28;20129;-61
2022/11/07 05:25:09;;;;;;;36.90;22.35;;;;;;;9.51;100.00;97307.47;5027814;28;20153;-61
2022/11/07 05:27:36;;;;;;;47.03;25.13;;;;;;;9.14;100.00;97235.03;5027933;28;20128;-62
2022/11/07 05:30:04;;;;;;;39.63;24.40;;;;;;;9.94;100.00;97321.16;5027304;28;20499;-55
2022/11/07 05:32:33;;;;;;;39.05;22.30;;;;;;;10.09;100.00;97314.84;5027786;28;20081;-58
2022/11/07 05:34:59;;;;;;;45.80;24.50;;;;;;;10.19;100.00;97316.25;5027405;28;20049;-62
2022/11/07 05:37:26;;;;;;;46.83;25.50;;;;;;;10.35;100.00;97315.00;5027480;28;20049;-55
2022/11/07 05:39:53;;;;;;;44.92;23.98;;;;;;;9.83;100.00;97209.44;5027084;28;20159;-61
2022/11/07 05:42:20;;;;;;;45.58;24.00;;;;;;;10.58;100.00;97324.25;5027243;28;20068;-61
2022/11/07 05:44:47;;;;;;;47.25;23.27;;;;;;;10.32;100.00;97271.44;5026964;28;20805;-54
2022/11/07 05:47:14;;;;;;;51.30;27.52;;;;;;;10.63;100.00;97315.66;5026317;28;20128;-60
2022/11/07 05:49:40;;;;;;;109.72;31.30;;;;;;;10.16;100.00;97220.88;5026747;28;20140;-63
2022/11/07 05:52:08;;;;;;;45.30;24.42;;;;;;;10.91;100.00;97334.03;5025892;28;20053;-61
2022/11/07 05:54:35;;;;;;;45.90;25.75;;;;;;;10.98;99.96;97348.81;5027298;28;20128;-61
2022/11/07 05:57:01;;;;;;;52.40;27.15;;;;;;;10.88;99.71;97298.72;5027019;28;20076;-61
2022/11/07 05:59:28;;;;;;;53.78;26.60;;;;;;;11.21;98.52;97335.00;5027069;28;20052;-56
2022/11/07 06:01:54;;;;;;;49.45;27.92;;;;;;;11.37;96.46;97332.94;5026729;28;20053;-64
2022/11/07 06:04:21;;;;;;;48.33;28.15;;;;;;;11.39;97.61;97342.50;5026816;28;20061;-57
2022/11/07 06:06:48;;;;;;;64.90;31.55;;;;;;;11.54;97.70;97349.13;5026963;28;20511;-54
2022/11/07 06:09:14;;;;;;;64.85;28.73;;;;;;;11.30;97.20;97310.63;5026737;28;20218;-61
2022/11/07 06:11:41;;;;;;;50.75;26.65;;;;;;;11.76;96.25;97340.03;5026555;28;20084;-54
2022/11/07 06:14:08;;;;;;;54.22;27.92;;;;;;;11.49;96.76;97296.72;5026593;28;20500;-61
2022/11/07 06:16:34;;;;;;;58.50;30.40;;;;;;;12.13;94.49;97349.34;5026203;28;20508;-55
2022/11/07 06:19:01;;;;;;;50.67;28.27;;;;;;;11.88;95.82;97309.28;5026068;28;20616;-62
2022/11/07 06:21:28;;;;;;;49.72;27.25;;;;;;;12.29;97.23;97352.78;5026656;28;20228;-54
2022/11/07 06:23:56;;;;;;;63.65;27.63;;;;;;;12.28;95.29;97340.06;5025862;28;20077;-54
2022/11/07 06:26:22;;;;;;;76.30;27.60;;;;;;;12.39;93.90;97363.25;5026202;28;20087;-55
2022/11/07 06:28:49;;;;;;;92.03;27.90;;;;;;;12.10;93.56;97311.22;5024881;28;20089;-55
2022/11/07 06:31:15;;;;;;;79.15;28.70;;;;;;;12.56;91.70;97362.72;5020342;28;20164;-54
2022/11/07 06:33:42;;;;;;;81.22;30.08;;;;;;;12.60;90.89;97369.09;5024038;28;20088;-64
2022/11/07 06:36:12;;;;;;;76.20;30.08;;;;;;;12.61;90.90;97348.50;5025200;28;20493;-66
2022/11/07 06:38:39;;;;;;;72.43;30.02;;;;;;;12.58;90.43;97331.75;5025816;28;20136;-56
2022/11/07 06:41:11;;;;;;;57.53;29.83;;;;;;;12.47;88.88;97298.25;5026137;28;20095;-57
2022/11/07 06:43:38;;;;;;;56.40;26.83;;;;;;;12.57;87.82;97292.03;5025957;28;20139;-62
2022/11/07 06:46:08;;;;;;;49.30;25.23;;;;;;;13.00;88.56;97377.63;5024005;28;20111;-56
2022/11/07 06:48:35;;;;;;;48.22;28.55;;;;;;;12.73;90.00;97356.59;5023909;28;20153;-54
2022/11/07 06:51:04;;;;;;;52.70;28.50;;;;;;;12.36;90.51;97286.19;5025557;28;20141;-63
2022/11/07 06:53:30;;;;;;;49.25;28.00;;;;;;;13.13;90.71;97381.78;5025575;28;20144;-59
2022/11/07 06:56:02;;;;;;;50.45;28.17;;;;;;;12.91;89.38;97279.78;5025760;28;20054;-52
2022/11/07 06:58:29;;;;;;;41.72;25.52;;;;;;;11.86;87.49;97067.38;5025223;28;20115;-62
2022/11/07 07:01:01;;;;;;;39.28;22.75;;;;;;;14.13;86.22;97390.00;5024187;28;20199;-56
2022/11/07 07:03:28;;;;;;;50.53;22.70;;;;;;;13.86;84.91;97313.34;5023877;28;20247;-56
2022/11/07 07:06:00;;;;;;;32.53;21.63;;;;;;;14.47;84.31;97385.91;5025384;28;20053;-68
2022/11/07 07:08:27;;;;;;;47.28;25.60;;;;;;;14.16;83.47;97327.94;5025184;28;20160;-64
2022/11/07 07:10:54;;;;;;;49.45;25.30;;;;;;;14.74;82.56;97404.03;5025573;28;20821;-61
2022/11/07 07:13:21;;;;;;;45.95;24.20;;;;;;;14.32;83.54;97387.00;5025423;28;20107;-65
2022/11/07 07:15:53;;;;;;;47.50;23.50;;;;;;;14.47;82.47;97344.09;5024696;28;20138;-56
2022/11/07 07:18:20;;;;;;;38.83;23.70;;;;;;;14.97;82.00;97393.38;5024698;28;20049;-54
2022/11/07 07:20:48;;;;;;;46.22;26.63;;;;;;;15.15;82.34;97397.09;5025048;28;20061;-55
2022/11/07 07:23:19;;;;;;;48.83;25.95;;;;;;;15.49;79.98;97390.06;5025362;28;20140;-66
2022/11/07 07:25:47;;;;;;;48.75;27.50;;;;;;;14.54;77.96;97236.22;5024780;28;20081;-57
2022/11/07 07:28:13;;;;;;;61.38;26.25;;;;;;;15.27;78.25;97315.00;5024876;28;20064;-59
2022/11/07 07:30:40;;;;;;;64.60;27.35;;;;;;;15.43;78.70;97319.06;5024830;28;20097;-61
2022/11/07 07:33:10;;;;;;;44.45;24.67;;;;;;;15.57;79.35;97390.91;5024771;28;20061;-62
2022/11/07 07:35:36;;;;;;;48.80;26.25;;;;;;;15.61;79.92;97389.72;5023905;28;20053;-56
2022/11/07 07:38:03;;;;;;;38.20;23.98;;;;;;;15.91;78.83;97384.59;5012631;28;20095;-56
2022/11/07 07:40:30;;;;;;;43.38;24.05;;;;;;;16.01;78.06;97371.84;5031438;28;20142;-63
2022/11/07 07:42:56;;;;;;;38.47;23.08;;;;;;;16.23;77.87;97363.06;5024538;28;20102;-53
2022/11/07 07:45:23;;;;;;;42.42;22.17;;;;;;;16.56;75.86;97382.25;5024494;28;20053;-61
2022/11/07 07:47:51;;;;;;;44.10;23.08;;;;;;;16.63;75.65;97383.47;5023467;28;20080;-62
2022/11/07 07:50:18;;;;;;;37.15;21.20;;;;;;;16.82;75.27;97383.03;5022928;28;20108;-56
2022/11/07 07:52:45;;;;;;;37.50;19.85;;;;;;;16.16;75.48;97346.28;5024610;28;20091;-60
2022/11/07 07:55:11;;;;;;;35.42;20.65;;;;;;;16.94;74.43;97385.38;5023221;28;20052;-56
2022/11/07 07:57:39;;;;;;;33.22;18.38;;;;;;;16.77;74.18;97383.44;5024339;28;20504;-58
2022/11/07 08:00:07;;;;;;;45.65;20.33;;;;;;;16.50;75.44;97383.84;5023026;28;20695;-56
2022/11/07 08:02:33;;;;;;;38.25;20.30;;;;;;;16.02;75.69;97301.59;5024615;28;20136;-64
2022/11/07 08:05:00;;;;;;;34.58;19.05;;;;;;;16.40;74.57;97328.72;5024415;28;20140;-66
2022/11/07 08:07:27;;;;;;;47.42;20.38;;;;;;;15.21;73.29;97166.66;5022627;28;20519;-61
2022/11/07 08:09:53;;;;;;;34.33;17.42;;;;;;;16.99;72.76;97384.97;5024219;28;20053;-56
2022/11/07 08:12:20;;;;;;;31.30;18.83;;;;;;;16.28;72.31;97241.66;5024106;28;20076;-63
2022/11/07 08:14:46;;;;;;;31.65;18.08;;;;;;;17.30;70.80;97409.28;5024075;28;20045;-61
2022/11/07 08:17:13;;;;;;;38.70;19.73;;;;;;;17.18;70.85;97395.72;5024394;28;20131;-62
2022/11/07 08:19:40;;;;;;;39.95;20.08;;;;;;;17.05;70.95;97391.75;5024009;28;20049;-56
2022/11/07 08:22:06;;;;;;;33.45;18.63;;;;;;;17.04;71.33;97390.16;5024167;28;20132;-60
2022/11/07 08:24:33;;;;;;;42.45;20.65;;;;;;;16.92;71.90;97393.38;5024569;28;20107;-56
2022/11/07 08:27:00;;;;;;;41.40;22.73;;;;;;;16.43;72.29;97372.66;5022675;28;20131;-60
2022/11/07 08:29:26;;;;;;;41.72;22.92;;;;;;;16.52;72.28;97347.91;5024344;28;20111;-56
2022/11/07 08:31:53;;;;;;;39.20;22.23;;;;;;;16.65;71.77;97379.03;5023864;28;20432;-52
2022/11/07 08:34:19;;;;;;;40.33;23.55;;;;;;;16.75;72.40;97399.81;5022800;28;20154;-63
2022/11/07 08:36:46;;;;;;;41.83;22.80;;;;;;;16.54;71.27;97311.94;5022573;28;20155;-55
2022/11/07 08:39:13;;;;;;;44.90;22.70;;;;;;;17.22;70.66;97386.09;5023411;28;20436;-62
2022/11/07 08:41:39;;;;;;;50.45;23.27;;;;;;;16.42;70.22;97256.38;5023785;28;20100;-63
2022/11/07 08:44:08;;;;;;;37.35;22.10;;;;;;;17.45;68.96;97388.47;5024083;28;20148;-58
2022/11/07 08:46:35;;;;;;;37.33;21.40;;;;;;;17.62;68.85;97388.38;5025843;28;20053;-60
2022/11/07 08:49:01;;;;;;;29.23;18.70;;;;;;;17.79;66.96;97383.88;5026551;28;20147;-58
2022/11/07 08:51:28;;;;;;;32.47;20.67;;;;;;;17.28;66.95;97294.06;5028046;28;20084;-58
2022/11/07 08:53:54;;;;;;;33.90;20.77;;;;;;;17.21;65.87;97243.72;5028034;28;20058;-56
2022/11/07 08:56:21;;;;;;;27.58;17.35;;;;;;;17.74;63.68;97373.06;5027526;28;20041;-60
2022/11/07 08:58:48;;;;;;;33.03;19.85;;;;;;;17.81;64.36;97311.41;5028358;28;20092;-60
2022/11/07 09:01:15;;;;;;;41.35;21.27;;;;;;;18.40;63.63;97427.94;5027897;28;20204;-56
2022/11/07 09:03:41;;;;;;;35.70;19.25;;;;;;;18.51;62.31;97389.38;5027851;28;20060;-58
2022/11/07 09:06:13;;;;;;;34.83;19.92;;;;;;;18.06;63.68;97382.09;5027512;28;20057;-60
2022/11/07 09:08:40;;;;;;;32.45;20.40;;;;;;;17.90;62.41;97320.13;5027877;28;20072;-59
2022/11/07 09:11:07;;;;;;;31.50;17.98;;;;;;;17.85;60.86;97290.53;5027895;28;20060;-60
2022/11/07 09:13:34;;;;;;;27.60;16.65;;;;;;;18.23;59.95;97325.06;5028061;28;20201;-55
2022/11/07 09:16:03;;;;;;;32.05;18.73;;;;;;;18.46;60.45;97375.81;5027747;28;20065;-59
2022/11/07 09:18:31;;;;;;;29.75;19.23;;;;;;;18.36;61.31;97379.47;5027395;28;20054;-61
2022/11/07 09:20:58;;;;;;;34.75;18.27;;;;;;;18.34;60.71;97310.94;5027302;28;20463;-63
2022/11/07 09:23:26;;;;;;;28.42;17.42;;;;;;;18.94;59.34;97373.72;5027077;28;20053;-62
2022/11/07 09:25:53;;;;;;;32.55;18.15;;;;;;;19.02;58.59;97369.63;5025711;28;20073;-55
2022/11/07 09:28:20;;;;;;;33.33;18.33;;;;;;;17.32;58.68;97132.44;5025297;28;20451;-60
2022/11/07 09:30:52;;;;;;;34.60;17.55;;;;;;;18.78;59.22;97337.00;5027196;28;20060;-60
2022/11/07 09:33:19;;;;;;;33.42;18.45;;;;;;;18.54;60.18;97354.88;5026995;28;20055;-56
2022/11/07 09:35:46;;;;;;;30.02;17.52;;;;;;;18.65;58.79;97316.28;5027227;28;20049;-64
2022/11/07 09:38:14;;;;;;;28.17;17.35;;;;;;;19.03;57.64;97353.59;5027061;28;20053;-58
2022/11/07 09:41:03;;;;;;;39.63;19.40;;;;;;;19.20;57.49;97363.81;5026955;28;20323;-62
2022/11/07 09:43:48;;;;;;;32.60;17.27;;;;;;;19.39;57.57;97349.94;5027228;28;20057;-61
2022/11/07 09:46:24;;;;;;;33.17;18.05;;;;;;;19.57;56.97;97348.94;5027215;28;20116;-57
2022/11/07 09:48:57;;;;;;;33.30;19.05;;;;;;;19.67;55.98;97337.56;5025761;28;20060;-61
2022/11/07 09:51:37;;;;;;;28.42;18.75;;;;;;;19.47;55.74;97294.47;5026493;28;20065;-69
2022/11/07 09:54:16;;;;;;;30.92;17.08;;;;;;;19.58;56.00;97346.50;5027015;28;20068;-60
2022/11/07 09:56:43;;;;;;;31.55;18.23;;;;;;;19.02;56.24;97285.41;5026690;28;20061;-60
2022/11/07 09:59:45;;;;;;;31.98;18.95;;;;;;;19.46;56.05;97344.25;5025158;28;20061;-57
2022/11/07 10:02:18;;;;;;;32.53;18.95;;;;;;;19.37;56.79;97323.50;5019548;28;20057;-61
2022/11/07 10:04:46;;;;;;;31.00;19.40;;;;;;;19.07;56.45;97282.13;5025255;28;20057;-57
2022/11/07 10:07:40;;;;;;;28.38;18.88;;;;;;;19.36;56.69;97339.56;5026746;28;20057;-60
2022/11/07 10:10:16;;;;;;;36.13;20.23;;;;;;;19.09;57.40;97341.50;5021187;28;20061;-61
2022/11/07 10:13:09;;;;;;;32.72;18.58;;;;;;;19.29;57.31;97327.63;5026592;28;20069;-61
2022/11/07 10:16:02;;;;;;;34.75;19.33;;;;;;;19.51;56.55;97335.38;5024724;28;20065;-57
2022/11/07 10:18:36;;;;;;;31.00;20.10;;;;;;;19.34;56.99;97327.16;5025003;28;20053;-63
2022/11/07 10:21:11;;;;;;;29.98;19.35;;;;;;;19.70;56.45;97327.47;5026592;28;20053;-57
2022/11/07 10:24:22;;;;;;;34.88;20.23;;;;;;;19.49;56.05;97337.78;5026259;28;20057;-61
2022/11/07 10:26:49;;;;;;;30.63;19.77;;;;;;;19.53;56.27;97324.50;5026031;28;20057;-62
2022/11/07 10:29:20;;;;;;;33.97;19.33;;;;;;;19.53;55.62;97281.53;5026117;28;20053;-58
2022/11/07 10:31:56;;;;;;;36.35;19.38;;;;;;;19.59;54.90;97262.97;5024524;28;20066;-58
2022/11/07 10:34:40;;;;;;;30.40;19.42;;;;;;;19.99;54.94;97289.28;5024916;28;20049;-57
2022/11/07 10:37:08;;;;;;;31.80;18.02;;;;;;;20.13;54.08;97309.53;5026280;28;20417;-56
2022/11/07 10:39:34;;;;;;;33.85;18.35;;;;;;;18.50;53.41;97023.06;5026175;28;20536;-62
2022/11/07 10:42:12;;;;;;;32.13;19.00;;;;;;;20.18;53.25;97238.75;5025541;28;20060;-61
2022/11/07 10:44:41;;;;;;;39.90;18.40;;;;;;;20.66;52.21;97311.47;5025873;28;20045;-62
2022/11/07 10:47:22;;;;;;;29.27;19.27;;;;;;;20.54;52.48;97295.19;5025519;28;20060;-61
2022/11/07 10:50:17;;;;;;;30.15;18.08;;;;;;;20.56;51.94;97270.22;5025815;28;20061;-65
2022/11/07 10:52:55;;;;;;;32.35;18.73;;;;;;;20.81;51.06;97287.44;5018901;28;20053;-57
2022/11/07 10:55:22;;;;;;;31.60;18.27;;;;;;;20.67;51.24;97293.34;5025899;28;20512;-61
2022/11/07 10:57:58;;;;;;;30.15;18.52;;;;;;;20.60;51.69;97270.94;5017758;28;20060;-57
2022/11/07 11:00:27;;;;;;;35.35;18.27;;;;;;;20.55;51.68;97271.47;5025737;28;20045;-55
2022/11/07 11:02:55;;;;;;;30.85;18.92;;;;;;;20.04;51.48;97193.19;5025722;28;20395;-63
2022/11/07 11:05:43;;;;;;;27.30;18.20;;;;;;;20.38;50.23;97269.75;5025025;28;20045;-55
2022/11/07 11:08:30;;;;;;;29.35;18.98;;;;;;;20.80;50.36;97280.25;5025143;28;20558;-60
2022/11/07 11:10:57;;;;;;;31.75;19.00;;;;;;;20.78;50.32;97282.69;5023051;28;20056;-57
2022/11/07 11:13:33;;;;;;;30.48;17.73;;;;;;;20.45;50.36;97264.81;5025083;28;20065;-61
2022/11/07 11:16:26;;;;;;;29.58;17.70;;;;;;;19.34;52.95;97245.69;5024776;28;20068;-65
2022/11/07 11:18:58;;;;;;;31.50;17.27;;;;;;;18.96;52.06;97149.50;5024822;28;20053;-63
2022/11/07 11:21:25;;;;;;;27.33;16.88;;;;;;;19.45;51.89;97171.28;5025090;28;20055;-64
2022/11/07 11:23:53;;;;;;;26.83;15.05;;;;;;;20.02;49.91;97212.50;5024885;28;20053;-59
2022/11/07 11:26:27;;;;;;;29.42;17.20;;;;;;;20.12;49.17;97194.66;5024851;28;20057;-62
2022/11/07 11:29:04;;;;;;;30.08;15.95;;;;;;;20.70;49.77;97259.50;5024875;28;20053;-55
2022/11/07 11:31:38;;;;;;;28.48;14.77;;;;;;;20.81;48.36;97248.03;5025065;28;20417;-55
2022/11/07 11:34:37;;;;;;;33.45;15.98;;;;;;;20.93;47.53;97233.28;5023903;28;20048;-55